Terminal Aerodrome Forecast
Issued by NWS

Home | Current Version | Previous Version | Text Only | Print | Product List | Glossary On
Versions: 1 2 3 4 5 6 7 8 9 10 11 12 13 14 15
000
FTUS46 KMFR 291132
TAFOTH
TAF
KOTH 291132Z 2912/3012 VRB03KT P6SM SKC
     FM291300 VRB03KT 2SM BR OVC006
     FM291500 02004KT 4SM BR OVC010
     FM291800 35012KT P6SM SKC
     FM292100 35020G28KT P6SM SKC
     FM300400 35010KT P6SM OVC015=

USA.gov is the U.S. government's official web portal to all federal, state and local government web resources and services.